Time;durP1;ratioP1;P1;durP2;ratioP2;P2;SDS_P1;SDS_P2;PMS_P1;PMS_P2;Temp;Humidity;BMP_temperature;BMP_pressure;BME280_temperature;BME280_humidity;BME280_pressure;Samples;Min_cycle;Max_cycle;Signal;HPM_P1;HPM_P2
2023/12/31 00:00:17;;;;;;;10.70;6.27;;;5.80;99.90;;;;;;5029872;28;20459;-54
2023/12/31 00:02:43;;;;;;;13.80;6.20;;;5.80;99.90;;;;;;5026471;28;20486;-53
2023/12/31 00:05:10;;;;;;;8.00;5.40;;;5.70;99.90;;;;;;5029321;28;20533;-59
2023/12/31 00:07:37;;;;;;;15.03;6.40;;;5.70;99.90;;;;;;5028379;28;20553;-55
2023/12/31 00:10:04;;;;;;;14.13;5.67;;;5.80;99.90;;;;;;5031475;28;20446;-58
2023/12/31 00:12:30;;;;;;;7.70;5.40;;;5.80;99.90;;;;;;5030889;28;20466;-54
2023/12/31 00:14:57;;;;;;;11.60;4.77;;;5.80;99.90;;;;;;5029513;28;20459;-55
2023/12/31 00:17:25;;;;;;;9.00;5.23;;;5.80;99.90;;;;;;5028320;28;21020;-59
2023/12/31 00:19:51;;;;;;;8.10;5.70;;;5.80;99.90;;;;;;5030597;28;20854;-55
2023/12/31 00:22:17;;;;;;;10.10;5.50;;;5.80;99.90;;;;;;5030665;28;20458;-56
2023/12/31 00:24:43;;;;;;;9.80;5.43;;;5.80;99.90;;;;;;5029980;28;21018;-56
2023/12/31 00:27:10;;;;;;;6.57;4.50;;;5.80;99.90;;;;;;5031272;28;20278;-55
2023/12/31 00:29:36;;;;;;;8.57;5.07;;;5.80;99.90;;;;;;5024994;28;20524;-57
2023/12/31 00:32:03;;;;;;;8.13;5.17;;;5.80;99.90;;;;;;5033480;28;20520;-57
2023/12/31 00:34:31;;;;;;;8.20;4.90;;;5.90;99.90;;;;;;5032977;28;20458;-55
2023/12/31 00:36:58;;;;;;;9.57;5.30;;;5.90;99.90;;;;;;5034696;28;20438;-54
2023/12/31 00:39:24;;;;;;;17.47;6.90;;;5.90;99.90;;;;;;5033099;28;20447;-54
2023/12/31 00:41:51;;;;;;;11.00;5.90;;;5.90;99.90;;;;;;5033899;28;20459;-54
2023/12/31 00:44:18;;;;;;;13.60;5.97;;;5.90;99.90;;;;;;5034491;28;20469;-53
2023/12/31 00:46:44;;;;;;;12.63;6.03;;;6.00;99.90;;;;;;5031802;28;20454;-55
2023/12/31 00:49:11;;;;;;;7.53;6.10;;;5.90;99.90;;;;;;5033844;28;20451;-53
2023/12/31 00:51:39;;;;;;;9.07;6.13;;;6.00;99.90;;;;;;5032699;28;20493;-55
2023/12/31 00:54:06;;;;;;;10.33;6.30;;;6.00;99.90;;;;;;5033211;28;20958;-55
2023/12/31 00:56:32;;;;;;;10.07;5.63;;;6.00;99.90;;;;;;5033965;28;20443;-54
2023/12/31 00:58:59;;;;;;;13.90;5.40;;;6.00;99.90;;;;;;5033522;28;20434;-53
2023/12/31 01:01:26;;;;;;;12.60;6.27;;;6.00;99.90;;;;;;5034373;28;20442;-55
2023/12/31 01:03:52;;;;;;;11.03;4.90;;;6.00;99.90;;;;;;5032148;28;20470;-54
2023/12/31 01:06:19;;;;;;;11.30;5.37;;;6.00;99.90;;;;;;5033950;28;20505;-55
2023/12/31 01:08:47;;;;;;;11.10;5.63;;;5.90;99.90;;;;;;5029466;28;20483;-55
2023/12/31 01:11:14;;;;;;;16.73;5.80;;;5.90;99.90;;;;;;5032820;28;20828;-54
2023/12/31 01:13:40;;;;;;;11.50;5.00;;;5.90;99.90;;;;;;5033613;28;20482;-54
2023/12/31 01:16:07;;;;;;;12.37;5.40;;;5.90;99.90;;;;;;5033480;28;20450;-53
2023/12/31 01:18:34;;;;;;;12.47;5.90;;;5.80;99.90;;;;;;5027781;28;20574;-53
2023/12/31 01:21:00;;;;;;;12.97;5.20;;;5.80;99.90;;;;;;5031015;28;20459;-53
2023/12/31 01:23:27;;;;;;;9.90;5.33;;;5.80;99.90;;;;;;5033200;28;20466;-54
2023/12/31 01:25:55;;;;;;;7.80;4.37;;;5.70;99.90;;;;;;5029350;28;20466;-55
2023/12/31 01:28:21;;;;;;;13.70;4.87;;;5.60;99.90;;;;;;5029023;28;20487;-54
2023/12/31 01:30:48;;;;;;;6.23;4.30;;;5.50;99.90;;;;;;5032213;28;20979;-54
2023/12/31 01:33:14;;;;;;;13.40;5.13;;;5.50;99.90;;;;;;5032255;28;21054;-54
2023/12/31 01:35:41;;;;;;;14.90;5.10;;;5.40;99.90;;;;;;5032815;28;20984;-53
2023/12/31 01:38:08;;;;;;;8.70;5.10;;;5.40;99.90;;;;;;5031006;28;20489;-54
2023/12/31 01:40:34;;;;;;;12.47;5.33;;;5.30;99.90;;;;;;5032295;28;20447;-53
2023/12/31 01:43:02;;;;;;;10.87;4.83;;;5.20;99.20;;;;;;5022927;28;20459;-55
2023/12/31 01:45:29;;;;;;;10.97;5.00;;;5.10;97.70;;;;;;5028870;28;20443;-53
2023/12/31 01:47:56;;;;;;;8.10;4.00;;;5.00;93.50;;;;;;5030543;28;21184;-55
2023/12/31 01:50:23;;;;;;;8.53;4.90;;;5.00;90.20;;;;;;5033389;28;20447;-54
2023/12/31 01:52:51;;;;;;;8.63;5.43;;;4.90;85.90;;;;;;5030962;28;20521;-54
2023/12/31 01:55:18;;;;;;;7.93;4.40;;;4.90;82.80;;;;;;5026962;28;20941;-54
2023/12/31 01:57:45;;;;;;;6.70;5.27;;;4.80;81.40;;;;;;5034882;28;20458;-54
2023/12/31 02:00:13;;;;;;;9.90;5.40;;;4.70;77.10;;;;;;5032715;28;20511;-53
2023/12/31 02:02:43;;;;;;;9.07;5.20;;;4.70;71.10;;;;;;5033248;28;20502;-54
2023/12/31 02:05:11;;;;;;;8.23;4.53;;;4.70;69.50;;;;;;5036019;28;20455;-54
2023/12/31 02:07:37;;;;;;;6.53;4.07;;;4.70;67.20;;;;;;5032929;28;20483;-55
2023/12/31 02:10:04;;;;;;;6.70;4.33;;;4.70;60.80;;;;;;5030655;28;20529;-54
2023/12/31 02:12:31;;;;;;;8.20;5.17;;;4.80;51.40;;;;;;5031003;28;20711;-54
2023/12/31 02:14:58;;;;;;;7.97;4.70;;;4.70;58.40;;;;;;5031763;28;20463;-54
2023/12/31 02:17:26;;;;;;;9.80;4.60;;;4.60;58.40;;;;;;5031905;28;20462;-54
2023/12/31 02:19:52;;;;;;;6.73;4.70;;;4.60;53.90;;;;;;5028674;28;20458;-53
2023/12/31 02:22:19;;;;;;;9.00;4.80;;;4.60;55.10;;;;;;5031390;28;20899;-54
2023/12/31 02:24:48;;;;;;;12.20;5.10;;;4.60;50.90;;;;;;5033081;28;20466;-53
2023/12/31 02:27:16;;;;;;;9.10;5.03;;;4.60;47.00;;;;;;5028306;28;20820;-55
2023/12/31 02:29:43;;;;;;;7.33;4.60;;;4.60;45.80;;;;;;5032811;28;20454;-55
2023/12/31 02:32:10;;;;;;;11.73;4.90;;;4.60;43.70;;;;;;5035136;28;20471;-56
2023/12/31 02:34:36;;;;;;;13.60;4.73;;;4.60;41.90;;;;;;5028847;28;20666;-53
2023/12/31 02:37:03;;;;;;;8.00;4.20;;;4.60;43.20;;;;;;5032203;28;20536;-55
2023/12/31 02:39:30;;;;;;;10.03;4.60;;;4.60;38.80;;;;;;5031489;28;20466;-55
2023/12/31 02:41:56;;;;;;;8.13;4.27;;;4.50;40.90;;;;;;5030866;28;20901;-54
2023/12/31 02:44:24;;;;;;;7.80;4.83;;;4.50;40.70;;;;;;5031938;28;20500;-54
2023/12/31 02:46:51;;;;;;;11.30;5.33;;;4.50;37.30;;;;;;5031582;28;20447;-54
2023/12/31 02:49:17;;;;;;;12.50;5.00;;;4.60;29.60;;;;;;5025617;28;20514;-54
2023/12/31 02:51:44;;;;;;;13.73;5.40;;;4.50;28.80;;;;;;5030718;28;20482;-53
2023/12/31 02:54:10;;;;;;;11.90;4.80;;;4.50;25.80;;;;;;5031537;28;20443;-53
2023/12/31 02:56:40;;;;;;;9.60;5.80;;;4.50;29.00;;;;;;5023954;28;20497;-54
2023/12/31 02:59:07;;;;;;;7.97;4.87;;;4.60;22.70;;;;;;5025435;28;20451;-54
2023/12/31 03:01:35;;;;;;;7.30;5.00;;;4.50;25.30;;;;;;5029086;28;20522;-54
2023/12/31 03:04:02;;;;;;;12.03;4.40;;;4.50;27.00;;;;;;5028309;28;20443;-55
2023/12/31 03:06:30;;;;;;;8.83;4.77;;;4.40;27.20;;;;;;5031187;28;20536;-54
2023/12/31 03:09:01;;;;;;;10.10;4.87;;;4.40;26.30;;;;;;5030006;28;20996;-54
2023/12/31 03:11:28;;;;;;;7.57;4.47;;;4.30;25.90;;;;;;5030874;28;20462;-54
2023/12/31 03:13:54;;;;;;;11.00;5.20;;;4.40;21.50;;;;;;5030090;28;20520;-53
2023/12/31 03:16:21;;;;;;;10.50;4.90;;;4.30;72.40;;;;;;5032830;28;20877;-53
2023/12/31 03:18:49;;;;;;;9.97;4.57;;;4.30;22.70;;;;;;5029319;28;20455;-55
2023/12/31 03:21:16;;;;;;;10.70;5.10;;;4.20;20.00;;;;;;5029340;28;20541;-53
2023/12/31 03:23:43;;;;;;;10.50;5.13;;;4.30;95.30;;;;;;5029373;28;20570;-53
2023/12/31 03:26:09;;;;;;;10.07;5.47;;;4.20;99.90;;;;;;5029828;28;20517;-54
2023/12/31 03:28:36;;;;;;;5.47;4.17;;;4.30;99.90;;;;;;5028252;28;20536;-53
2023/12/31 03:31:03;;;;;;;11.30;5.30;;;4.20;96.50;;;;;;5034454;28;20478;-53
2023/12/31 03:33:30;;;;;;;8.20;4.80;;;4.10;99.90;;;;;;5029023;28;20482;-54
2023/12/31 03:35:58;;;;;;;10.90;5.17;;;4.20;99.90;;;;;;5030576;28;20494;-54
2023/12/31 03:38:24;;;;;;;7.27;4.77;;;4.20;99.90;;;;;;5031012;28;20552;-54
2023/12/31 03:40:51;;;;;;;11.77;5.70;;;4.10;99.90;;;;;;5030936;28;20499;-54
2023/12/31 03:43:18;;;;;;;8.13;5.13;;;4.10;99.90;;;;;;5029094;28;20482;-55
2023/12/31 03:45:44;;;;;;;11.27;4.70;;;4.00;99.90;;;;;;5029071;28;20524;-54
2023/12/31 03:48:12;;;;;;;9.13;5.37;;;4.00;99.90;;;;;;5029454;28;20536;-54
2023/12/31 03:50:38;;;;;;;11.27;5.40;;;4.00;99.90;;;;;;5030783;28;20466;-55
2023/12/31 03:53:06;;;;;;;6.80;4.70;;;3.90;99.90;;;;;;5025521;28;20892;-54
2023/12/31 03:55:32;;;;;;;7.90;4.40;;;3.90;99.90;;;;;;5029442;28;20529;-55
2023/12/31 03:57:59;;;;;;;8.97;4.47;;;3.90;99.90;;;;;;5029739;28;20517;-54
2023/12/31 04:00:26;;;;;;;10.10;4.50;;;3.90;99.90;;;;;;5030354;28;21050;-54
2023/12/31 04:02:52;;;;;;;10.43;4.43;;;3.90;99.90;;;;;;5028755;28;21084;-55
2023/12/31 04:05:19;;;;;;;13.00;4.17;;;3.90;99.90;;;;;;5029731;28;20975;-54
2023/12/31 04:07:45;;;;;;;9.27;4.53;;;3.90;99.90;;;;;;5034257;28;20563;-54
2023/12/31 04:10:13;;;;;;;6.30;4.00;;;3.90;99.90;;;;;;5035341;28;20512;-54
2023/12/31 04:12:40;;;;;;;8.60;4.50;;;4.00;99.90;;;;;;5033897;28;20541;-53
2023/12/31 04:15:08;;;;;;;7.07;4.47;;;3.90;99.90;;;;;;5033901;28;20497;-55
2023/12/31 04:17:34;;;;;;;10.47;4.50;;;3.90;99.90;;;;;;5033795;28;20469;-54
2023/12/31 04:20:01;;;;;;;9.93;4.50;;;3.80;99.90;;;;;;5030759;28;20494;-54
2023/12/31 04:22:28;;;;;;;9.23;4.47;;;3.90;99.90;;;;;;5034184;28;21028;-54
2023/12/31 04:24:55;;;;;;;5.43;4.00;;;3.80;99.90;;;;;;5032560;28;20462;-54
2023/12/31 04:27:22;;;;;;;6.40;4.07;;;3.80;99.90;;;;;;5033594;28;20529;-54
2023/12/31 04:29:49;;;;;;;7.83;3.93;;;3.80;99.90;;;;;;5037402;28;20619;-54
2023/12/31 04:32:15;;;;;;;7.90;4.50;;;4.00;99.90;;;;;;5033295;28;20927;-54
2023/12/31 04:34:42;;;;;;;6.10;4.50;;;4.00;99.90;;;;;;5033867;28;20823;-55
2023/12/31 04:37:09;;;;;;;8.17;4.27;;;4.00;99.90;;;;;;5034625;28;21042;-55
2023/12/31 04:39:35;;;;;;;10.87;4.40;;;3.90;99.90;;;;;;5033927;28;20921;-55
2023/12/31 04:42:03;;;;;;;7.23;3.60;;;3.90;99.90;;;;;;5036507;28;20467;-53
2023/12/31 04:44:31;;;;;;;6.97;3.80;;;3.90;99.90;;;;;;5033852;28;20948;-54
2023/12/31 04:46:57;;;;;;;9.30;4.07;;;3.90;99.90;;;;;;5033867;28;20446;-54
2023/12/31 04:49:24;;;;;;;9.30;4.20;;;3.80;99.90;;;;;;5033145;28;20482;-56
2023/12/31 04:51:50;;;;;;;11.53;4.70;;;3.70;99.90;;;;;;5033711;28;20467;-55
2023/12/31 04:54:17;;;;;;;11.27;4.60;;;3.70;99.90;;;;;;5030565;28;20467;-54
2023/12/31 04:56:43;;;;;;;8.40;4.53;;;3.70;99.90;;;;;;5032773;28;20475;-53
2023/12/31 04:59:10;;;;;;;12.10;4.63;;;3.70;99.90;;;;;;5032165;28;21226;-55
2023/12/31 05:01:38;;;;;;;8.23;4.20;;;3.80;99.90;;;;;;5033509;28;20478;-54
2023/12/31 05:04:05;;;;;;;8.10;4.03;;;3.80;99.90;;;;;;5031143;28;20462;-54
2023/12/31 05:06:31;;;;;;;10.03;3.90;;;3.70;99.90;;;;;;5034077;28;20508;-57
2023/12/31 05:08:58;;;;;;;6.10;3.60;;;3.70;99.90;;;;;;5033053;28;20985;-58
2023/12/31 05:11:26;;;;;;;7.53;3.70;;;3.60;99.90;;;;;;5031082;28;20474;-57
2023/12/31 05:13:53;;;;;;;4.93;3.50;;;3.60;99.90;;;;;;5031159;28;20487;-57
2023/12/31 05:16:19;;;;;;;5.37;3.83;;;3.70;99.90;;;;;;5027104;28;20485;-57
2023/12/31 05:18:50;;;;;;;6.80;3.53;;;3.70;99.90;;;;;;5031424;28;20475;-57
2023/12/31 05:21:17;;;;;;;8.07;3.90;;;3.80;99.90;;;;;;5030672;28;21126;-57
2023/12/31 05:23:43;;;;;;;6.63;4.07;;;3.80;99.90;;;;;;5026284;28;20471;-57
2023/12/31 05:26:10;;;;;;;9.10;4.40;;;3.90;99.90;;;;;;5032715;28;20838;-58
2023/12/31 05:28:37;;;;;;;6.67;4.03;;;4.00;99.90;;;;;;5030783;28;20483;-57
2023/12/31 05:31:04;;;;;;;8.70;3.93;;;4.00;99.90;;;;;;5031324;28;20493;-57
2023/12/31 05:33:31;;;;;;;4.60;4.07;;;4.10;99.90;;;;;;5030223;28;21050;-58
2023/12/31 05:35:58;;;;;;;8.00;4.00;;;4.10;99.90;;;;;;5031267;28;20490;-57
2023/12/31 05:38:25;;;;;;;7.23;4.03;;;4.20;99.90;;;;;;5032149;28;20969;-57
2023/12/31 05:40:52;;;;;;;6.13;4.20;;;4.20;99.90;;;;;;5032360;28;21015;-57
2023/12/31 05:43:18;;;;;;;5.30;3.60;;;4.30;99.90;;;;;;5031007;28;20510;-58
2023/12/31 05:45:45;;;;;;;8.30;3.80;;;4.30;99.90;;;;;;5031616;28;20494;-56
2023/12/31 05:48:12;;;;;;;8.30;4.20;;;4.30;99.90;;;;;;5032512;28;20477;-57
2023/12/31 05:50:39;;;;;;;10.07;3.07;;;4.40;99.90;;;;;;5030697;28;20565;-57
2023/12/31 05:53:07;;;;;;;7.77;3.80;;;4.40;99.90;;;;;;5032335;28;20510;-57
2023/12/31 05:55:33;;;;;;;8.53;4.20;;;4.40;99.90;;;;;;5036193;28;20513;-57
2023/12/31 05:58:00;;;;;;;8.07;3.60;;;4.40;99.90;;;;;;5031626;28;20458;-58
2023/12/31 06:00:27;;;;;;;9.30;4.00;;;4.40;99.90;;;;;;5030984;28;20525;-58
2023/12/31 06:02:53;;;;;;;3.90;3.07;;;4.40;99.90;;;;;;5030401;28;20491;-58
2023/12/31 06:05:20;;;;;;;6.63;3.77;;;4.40;99.90;;;;;;5032106;28;20938;-57
2023/12/31 06:07:46;;;;;;;8.63;4.30;;;4.40;99.90;;;;;;5031462;28;20467;-57
2023/12/31 06:10:14;;;;;;;9.43;3.43;;;4.50;99.90;;;;;;5028353;28;20600;-57
2023/12/31 06:12:42;;;;;;;6.53;3.43;;;4.50;97.60;;;;;;5029226;28;20996;-57
2023/12/31 06:15:10;;;;;;;7.00;3.50;;;4.50;88.90;;;;;;5031762;28;20537;-57
2023/12/31 06:17:36;;;;;;;7.90;3.80;;;4.50;82.40;;;;;;5031027;28;20948;-58
2023/12/31 06:20:04;;;;;;;6.50;4.20;;;4.50;21.00;;;;;;5031181;28;20517;-57
2023/12/31 06:22:31;;;;;;;6.87;3.90;;;4.50;23.90;;;;;;5028885;28;20536;-57
2023/12/31 06:24:58;;;;;;;5.70;3.63;;;4.50;23.70;;;;;;5031632;28;20451;-57
2023/12/31 06:27:26;;;;;;;9.00;4.27;;;4.50;23.90;;;;;;5034931;28;20549;-57
2023/12/31 06:29:53;;;;;;;7.17;3.87;;;4.50;24.60;;;;;;5031351;28;20494;-57
2023/12/31 06:32:20;;;;;;;10.33;3.80;;;4.50;25.70;;;;;;5030029;28;20489;-58
2023/12/31 06:34:47;;;;;;;6.87;3.43;;;4.50;29.00;;;;;;5029526;28;20466;-57
2023/12/31 06:37:14;;;;;;;4.00;3.10;;;4.60;27.40;;;;;;5034226;28;20525;-57
2023/12/31 06:39:42;;;;;;;11.47;3.20;;;4.60;28.00;;;;;;5031451;28;20462;-57
2023/12/31 06:42:09;;;;;;;3.53;3.20;;;4.60;28.50;;;;;;5029294;28;20510;-57
2023/12/31 06:44:37;;;;;;;6.73;3.70;;;4.60;29.50;;;;;;5030637;28;20459;-56
2023/12/31 06:47:04;;;;;;;5.00;3.27;;;4.60;30.30;;;;;;5026577;28;20458;-57
2023/12/31 06:49:30;;;;;;;6.40;3.40;;;4.60;31.50;;;;;;5031155;28;20532;-57
2023/12/31 06:51:57;;;;;;;4.33;3.57;;;4.60;31.30;;;;;;5031621;28;20471;-57
2023/12/31 06:54:23;;;;;;;4.40;3.10;;;4.60;31.70;;;;;;5031494;28;20533;-57
2023/12/31 06:56:50;;;;;;;6.50;3.50;;;4.60;31.60;;;;;;5031708;28;20504;-57
2023/12/31 06:59:16;;;;;;;6.77;3.80;;;4.60;31.50;;;;;;5030597;28;20486;-57
2023/12/31 07:01:44;;;;;;;8.80;3.53;;;4.70;30.00;;;;;;5029467;28;20591;-58
2023/12/31 07:04:11;;;;;;;4.57;3.63;;;4.70;31.90;;;;;;5027614;28;20869;-57
2023/12/31 07:06:38;;;;;;;5.83;3.30;;;4.70;34.20;;;;;;5029380;28;20952;-56
2023/12/31 07:09:05;;;;;;;6.40;3.40;;;4.70;33.00;;;;;;5026212;28;20462;-56
2023/12/31 07:11:32;;;;;;;5.40;3.00;;;4.70;33.60;;;;;;5028242;28;20459;-57
2023/12/31 07:13:58;;;;;;;8.83;3.70;;;4.80;33.30;;;;;;5030113;28;20462;-58
2023/12/31 07:16:25;;;;;;;9.60;4.30;;;4.70;34.00;;;;;;5030457;28;20505;-58
2023/12/31 07:18:53;;;;;;;5.83;3.10;;;4.70;35.60;;;;;;5028759;28;20502;-58
2023/12/31 07:21:23;;;;;;;3.20;2.80;;;4.80;36.60;;;;;;5030573;28;20459;-58
2023/12/31 07:23:49;;;;;;;5.57;3.40;;;4.80;38.50;;;;;;5026123;28;20482;-57
2023/12/31 07:26:24;;;;;;;6.63;4.40;;;4.80;36.90;;;;;;5034016;28;20521;-57
2023/12/31 07:28:51;;;;;;;6.40;4.33;;;4.70;33.50;;;;;;5029089;28;20461;-58
2023/12/31 07:31:18;;;;;;;6.83;4.00;;;4.70;33.00;;;;;;5028531;28;20490;-58
2023/12/31 07:33:44;;;;;;;8.87;3.80;;;4.70;30.30;;;;;;5039086;28;20505;-58
2023/12/31 07:36:12;;;;;;;7.13;3.83;;;4.70;26.20;;;;;;5027870;28;20514;-57
2023/12/31 07:38:39;;;;;;;9.53;3.80;;;4.70;25.20;;;;;;5029801;28;20469;-58
2023/12/31 07:41:06;;;;;;;3.53;2.90;;;4.70;21.90;;;;;;5033710;28;20549;-57
2023/12/31 07:43:32;;;;;;;4.57;3.03;;;4.70;23.20;;;;;;5032766;28;20482;-58
2023/12/31 07:45:59;;;;;;;10.20;3.30;;;4.80;22.70;;;;;;5033333;28;20455;-57
2023/12/31 07:48:26;;;;;;;8.00;3.47;;;4.80;23.20;;;;;;5036196;28;20462;-57
2023/12/31 07:50:52;;;;;;;6.63;3.90;;;4.80;22.30;;;;;;5034008;28;20534;-56
2023/12/31 07:53:20;;;;;;;13.03;3.17;;;4.90;23.10;;;;;;5034238;28;20494;-57
2023/12/31 07:55:47;;;;;;;6.90;3.07;;;4.90;30.30;;;;;;5033784;28;20528;-55
2023/12/31 07:58:14;;;;;;;6.13;3.20;;;5.00;30.50;;;;;;5026944;28;20458;-56
2023/12/31 08:00:40;;;;;;;6.00;2.80;;;5.00;35.30;;;;;;5032653;28;20455;-56
2023/12/31 08:03:07;;;;;;;3.77;3.00;;;5.00;36.60;;;;;;5033320;28;20517;-56
2023/12/31 08:05:34;;;;;;;3.80;2.60;;;5.00;36.50;;;;;;5031575;28;21032;-56
2023/12/31 08:08:00;;;;;;;4.37;2.80;;;5.00;42.50;;;;;;5031765;28;20877;-55
2023/12/31 08:10:28;;;;;;;6.37;3.27;;;5.10;41.80;;;;;;5032240;28;20532;-55
2023/12/31 08:12:55;;;;;;;3.23;2.90;;;5.10;44.30;;;;;;5031058;28;20608;-55
2023/12/31 08:15:21;;;;;;;3.00;2.80;;;5.10;48.90;;;;;;5033050;28;20513;-56
2023/12/31 08:17:48;;;;;;;5.37;3.03;;;5.20;47.90;;;;;;5033356;28;20867;-57
2023/12/31 08:20:15;;;;;;;6.17;3.23;;;5.20;48.00;;;;;;5032089;28;20462;-56
2023/12/31 08:22:42;;;;;;;6.07;3.30;;;5.20;51.60;;;;;;5033880;28;21073;-57
2023/12/31 08:25:09;;;;;;;6.03;2.93;;;5.20;54.00;;;;;;5034826;28;20478;-57
2023/12/31 08:27:37;;;;;;;5.57;3.10;;;5.20;55.00;;;;;;5032756;28;20957;-57
2023/12/31 08:30:03;;;;;;;4.53;3.47;;;5.20;56.60;;;;;;5033147;28;20541;-57
2023/12/31 08:32:30;;;;;;;7.50;3.23;;;5.30;58.00;;;;;;5033534;28;20560;-57
2023/12/31 08:34:57;;;;;;;5.80;2.90;;;5.20;59.30;;;;;;5031502;28;20489;-56
2023/12/31 08:37:23;;;;;;;3.50;3.00;;;5.30;59.60;;;;;;5035760;28;20947;-57
2023/12/31 08:39:50;;;;;;;3.27;2.97;;;5.30;60.80;;;;;;5031519;28;20481;-54
2023/12/31 08:42:16;;;;;;;2.83;2.60;;;5.30;60.80;;;;;;5033842;28;21050;-54
2023/12/31 08:44:44;;;;;;;6.50;3.40;;;5.30;65.90;;;;;;5034053;28;20819;-54
2023/12/31 08:47:11;;;;;;;4.30;3.03;;;5.40;64.40;;;;;;5031480;28;20456;-53
2023/12/31 08:49:38;;;;;;;3.90;3.07;;;5.40;68.60;;;;;;5033804;28;20496;-53
2023/12/31 08:52:05;;;;;;;3.20;2.60;;;5.40;69.70;;;;;;5032023;28;20548;-54
2023/12/31 08:54:33;;;;;;;4.50;2.83;;;5.40;71.40;;;;;;5033249;28;20447;-54
2023/12/31 08:56:59;;;;;;;5.17;2.90;;;5.50;67.70;;;;;;5034053;28;20458;-53
2023/12/31 08:59:26;;;;;;;6.30;3.40;;;5.50;60.40;;;;;;5033688;28;20443;-54
2023/12/31 09:01:54;;;;;;;5.20;2.93;;;5.50;55.80;;;;;;5032964;28;20486;-55
2023/12/31 09:04:21;;;;;;;5.40;3.17;;;5.50;47.20;;;;;;5030863;28;20467;-54
2023/12/31 09:06:47;;;;;;;6.63;3.63;;;5.50;40.40;;;;;;5029980;28;20541;-54
2023/12/31 09:09:14;;;;;;;3.60;3.13;;;5.50;39.10;;;;;;5026615;28;20491;-55
2023/12/31 09:11:41;;;;;;;6.90;3.10;;;5.50;37.10;;;;;;5032824;28;20514;-54
2023/12/31 09:14:08;;;;;;;4.87;3.10;;;5.50;38.10;;;;;;5032780;28;20516;-54
2023/12/31 09:16:34;;;;;;;4.60;3.00;;;5.50;41.20;;;;;;5033127;28;20569;-55
2023/12/31 09:19:02;;;;;;;5.03;3.20;;;5.50;41.60;;;;;;5031628;28;20508;-54
2023/12/31 09:21:29;;;;;;;6.23;2.90;;;5.60;42.00;;;;;;5031430;28;20459;-55
2023/12/31 09:23:55;;;;;;;5.70;3.33;;;5.60;42.30;;;;;;5029458;28;20521;-55
2023/12/31 09:26:22;;;;;;;6.80;3.30;;;5.70;44.30;;;;;;5024426;28;20463;-55
2023/12/31 09:28:50;;;;;;;8.00;3.90;;;5.70;51.10;;;;;;5032385;28;20498;-62
2023/12/31 09:31:16;;;;;;;6.17;3.70;;;5.80;58.40;;;;;;5029128;28;20493;-56
2023/12/31 09:33:43;;;;;;;4.00;2.83;;;5.90;57.30;;;;;;5032528;28;20573;-55
2023/12/31 09:36:11;;;;;;;9.37;4.23;;;6.00;59.60;;;;;;5027022;28;20463;-55
2023/12/31 09:38:37;;;;;;;7.63;5.07;;;6.10;66.40;;;;;;5030100;28;20931;-58
2023/12/31 09:41:06;;;;;;;5.90;4.33;;;6.10;73.50;;;;;;5032044;28;20455;-54
2023/12/31 09:43:34;;;;;;;6.60;4.37;;;6.10;88.70;;;;;;5031700;28;20909;-55
2023/12/31 09:46:01;;;;;;;3.90;3.20;;;6.20;86.10;;;;;;5029873;28;20485;-56
2023/12/31 09:48:28;;;;;;;6.00;4.17;;;6.20;88.30;;;;;;5032260;28;20466;-56
2023/12/31 09:50:54;;;;;;;4.77;3.20;;;6.20;89.90;;;;;;5030470;28;20517;-56
2023/12/31 09:53:23;;;;;;;6.43;3.40;;;6.20;99.90;;;;;;5032611;28;20462;-56
2023/12/31 09:55:50;;;;;;;3.87;3.30;;;6.20;98.10;;;;;;5028069;28;20467;-56
2023/12/31 09:58:18;;;;;;;3.97;3.30;;;6.20;98.40;;;;;;5031325;28;20478;-55
2023/12/31 10:00:45;;;;;;;10.87;3.20;;;6.30;94.80;;;;;;5030660;28;20552;-53
2023/12/31 10:03:12;;;;;;;6.73;2.87;;;6.20;96.20;;;;;;5029051;28;20548;-53
2023/12/31 10:05:41;;;;;;;4.50;3.23;;;6.20;98.40;;;;;;5031680;28;20466;-53
2023/12/31 10:08:09;;;;;;;3.60;3.10;;;6.30;99.90;;;;;;5035081;28;20788;-56
2023/12/31 10:10:40;;;;;;;6.10;3.53;;;6.30;99.90;;;;;;5029493;28;20552;-57
2023/12/31 10:13:13;;;;;;;4.40;3.57;;;6.30;99.90;;;;;;5031917;28;20470;-56
2023/12/31 10:15:40;;;;;;;3.50;2.83;;;6.40;99.90;;;;;;5028205;28;20961;-56
2023/12/31 10:18:08;;;;;;;6.37;3.23;;;6.40;99.90;;;;;;5032305;28;20486;-56
2023/12/31 10:20:36;;;;;;;4.07;3.67;;;6.40;99.90;;;;;;5029150;28;20851;-56
2023/12/31 10:23:02;;;;;;;4.70;3.67;;;6.50;99.90;;;;;;5029508;28;20482;-55
2023/12/31 10:25:29;;;;;;;7.97;3.83;;;6.50;99.90;;;;;;5031257;28;20494;-54
2023/12/31 10:27:57;;;;;;;5.57;3.43;;;6.50;99.90;;;;;;5029712;28;20877;-54
2023/12/31 10:30:24;;;;;;;9.23;3.80;;;6.50;99.90;;;;;;5026961;28;20996;-53
2023/12/31 10:32:50;;;;;;;5.30;3.67;;;6.50;99.90;;;;;;5026170;28;20576;-55
2023/12/31 10:35:20;;;;;;;4.53;3.63;;;6.50;99.90;;;;;;5031338;28;20466;-54
2023/12/31 10:37:47;;;;;;;8.13;4.03;;;6.50;99.90;;;;;;5031035;28;20446;-54
2023/12/31 10:40:18;;;;;;;8.43;3.83;;;6.50;99.90;;;;;;5030916;28;20509;-54
2023/12/31 10:42:48;;;;;;;5.07;3.13;;;6.60;99.90;;;;;;5027944;28;20483;-54
2023/12/31 10:45:19;;;;;;;8.57;3.27;;;6.60;99.90;;;;;;5030320;28;20981;-54
2023/12/31 10:47:46;;;;;;;3.93;3.07;;;6.60;99.90;;;;;;5030727;28;20892;-54
2023/12/31 10:50:17;;;;;;;4.20;3.33;;;6.60;99.90;;;;;;5028913;28;20506;-54
2023/12/31 10:52:45;;;;;;;6.10;3.30;;;6.60;99.90;;;;;;5028667;28;20497;-56
2023/12/31 10:55:13;;;;;;;6.53;3.50;;;6.70;99.90;;;;;;5030708;28;20466;-60
2023/12/31 10:57:41;;;;;;;3.73;3.43;;;6.70;99.90;;;;;;5029353;28;20462;-55
2023/12/31 11:00:11;;;;;;;5.93;3.60;;;6.70;99.90;;;;;;5029936;28;20462;-53
2023/12/31 11:02:39;;;;;;;4.53;3.40;;;6.70;99.90;;;;;;5035582;28;20478;-61
2023/12/31 11:05:07;;;;;;;5.50;3.43;;;6.80;99.90;;;;;;5033211;28;20555;-56
2023/12/31 11:07:35;;;;;;;3.37;3.00;;;6.80;99.90;;;;;;5024597;28;20529;-56
2023/12/31 11:10:02;;;;;;;6.67;3.97;;;6.90;99.90;;;;;;5021384;28;20883;-55
2023/12/31 11:12:29;;;;;;;6.07;3.43;;;6.90;99.90;;;;;;5027530;28;20836;-57
2023/12/31 11:15:00;;;;;;;3.50;3.20;;;6.90;99.90;;;;;;5019348;28;20585;-62
2023/12/31 11:17:50;;;;;;;4.10;3.17;;;7.00;99.90;;;;;;5020138;28;20659;-62
2023/12/31 11:20:33;;;;;;;6.20;3.63;;;7.00;99.90;;;;;;5025413;28;20992;-61
2023/12/31 11:23:10;;;;;;;4.50;3.50;;;7.00;99.90;;;;;;5022858;28;20505;-57
2023/12/31 11:25:38;;;;;;;5.10;3.70;;;7.00;99.90;;;;;;5025705;28;20489;-54
2023/12/31 11:28:07;;;;;;;5.00;3.70;;;7.00;99.90;;;;;;5031398;28;20454;-56
2023/12/31 11:30:51;;;;;;;4.40;2.80;;;7.10;99.90;;;;;;5030837;28;20478;-56
2023/12/31 11:33:20;;;;;;;3.47;3.00;;;7.10;99.90;;;;;;5027720;28;20536;-56
2023/12/31 11:35:51;;;;;;;4.87;3.40;;;7.10;99.90;;;;;;5028577;28;20454;-56
2023/12/31 11:38:18;;;;;;;6.50;3.30;;;7.20;99.90;;;;;;5029832;28;20995;-56
2023/12/31 11:40:45;;;;;;;3.57;2.80;;;7.20;99.90;;;;;;5029852;28;20469;-54
2023/12/31 11:43:14;;;;;;;4.00;3.23;;;7.20;99.90;;;;;;5031271;28;20569;-54
2023/12/31 11:45:45;;;;;;;3.93;2.73;;;7.20;99.90;;;;;;5032928;28;20442;-61
2023/12/31 11:48:27;;;;;;;4.60;3.13;;;7.30;99.90;;;;;;5029426;28;20466;-54
2023/12/31 11:50:58;;;;;;;5.77;3.70;;;7.30;99.90;;;;;;5025327;28;20810;-55
2023/12/31 11:53:26;;;;;;;6.00;3.10;;;7.30;99.90;;;;;;5021840;28;20553;-56
2023/12/31 11:55:58;;;;;;;7.07;3.10;;;7.30;99.90;;;;;;5019613;28;20501;-60
2023/12/31 11:58:27;;;;;;;7.80;3.60;;;7.30;99.90;;;;;;5018510;28;20935;-53
2023/12/31 12:00:54;;;;;;;3.80;3.10;;;7.40;99.90;;;;;;5019418;28;20477;-55
2023/12/31 12:03:22;;;;;;;5.53;3.20;;;7.40;99.90;;;;;;5027275;28;20569;-61
2023/12/31 12:05:50;;;;;;;3.60;2.77;;;7.40;99.90;;;;;;5028307;28;20865;-54
2023/12/31 12:08:17;;;;;;;3.60;3.10;;;7.40;99.90;;;;;;5028404;28;20489;-54
2023/12/31 12:10:44;;;;;;;4.20;2.80;;;7.50;99.90;;;;;;5028857;28;20528;-61
2023/12/31 12:13:11;;;;;;;3.87;2.80;;;7.50;99.90;;;;;;5029934;28;20881;-55
2023/12/31 12:15:39;;;;;;;5.13;3.30;;;7.50;99.90;;;;;;5030724;28;20443;-55
2023/12/31 12:18:17;;;;;;;5.00;3.30;;;7.50;99.90;;;;;;5028416;28;20462;-61
2023/12/31 12:20:43;;;;;;;2.93;2.73;;;7.50;99.90;;;;;;5027922;28;20470;-54
2023/12/31 12:23:12;;;;;;;4.57;3.37;;;7.60;99.90;;;;;;5026237;28;20537;-54
2023/12/31 12:25:42;;;;;;;6.43;3.60;;;7.60;99.90;;;;;;5020734;28;20467;-54
2023/12/31 12:28:09;;;;;;;5.17;2.80;;;7.60;99.90;;;;;;5021672;28;20490;-54
2023/12/31 12:30:39;;;;;;;3.20;2.90;;;7.70;99.90;;;;;;5031034;28;20500;-53
2023/12/31 12:33:07;;;;;;;7.60;2.57;;;7.70;99.90;;;;;;5030233;28;20510;-55
2023/12/31 12:35:33;;;;;;;4.80;3.30;;;7.70;99.90;;;;;;5029304;28;20980;-61
2023/12/31 12:38:00;;;;;;;3.13;2.77;;;7.70;99.90;;;;;;5033819;28;20956;-60
2023/12/31 12:40:29;;;;;;;3.90;3.07;;;7.70;99.90;;;;;;5020617;28;20464;-61
2023/12/31 12:42:55;;;;;;;6.43;3.20;;;7.70;99.90;;;;;;5024750;28;20474;-61
2023/12/31 12:45:23;;;;;;;4.70;3.00;;;7.70;99.90;;;;;;5028497;28;20524;-61
2023/12/31 12:47:49;;;;;;;4.47;2.93;;;7.70;99.90;;;;;;5029092;28;20462;-61
2023/12/31 12:50:16;;;;;;;3.63;3.00;;;7.70;99.90;;;;;;5027063;28;20463;-61
2023/12/31 12:52:43;;;;;;;5.73;3.23;;;7.70;99.90;;;;;;5026142;28;20490;-60
2023/12/31 12:55:09;;;;;;;5.60;3.10;;;7.60;99.90;;;;;;5020930;28;20462;-61